Time;durP1;ratioP1;P1;durP2;ratioP2;P2;SDS_P1;SDS_P2;PMS_P1;PMS_P2;Temp;Humidity;BMP_temperature;BMP_pressure;BME280_temperature;BME280_humidity;BME280_pressure;Samples;Min_cycle;Max_cycle;Signal;HPM_P1;HPM_P2
2021/10/01 00:00:23;;;;;;;;;;;;;;;11.10;52.81;97424.13;6279518;22;19926;-73
2021/10/01 00:02:50;;;;;;;;;;;;;;;11.08;53.00;97426.88;6278919;22;19926;-74
2021/10/01 00:05:19;;;;;;;;;;;;;;;11.08;52.74;97421.66;6279667;22;19923;-76
2021/10/01 00:07:49;;;;;;;;;;;;;;;11.06;52.90;97420.22;6279287;22;19920;-74
2021/10/01 00:10:16;;;;;;;;;;;;;;;11.06;53.01;97418.44;6278937;22;19927;-74
2021/10/01 00:12:43;;;;;;;;;;;;;;;11.05;53.06;97419.41;6278032;22;20366;-74
2021/10/01 00:15:11;;;;;;;;;;;;;;;11.05;52.87;97427.22;6278383;22;19919;-75
2021/10/01 00:17:38;;;;;;;;;;;;;;;11.08;52.76;97420.84;6278335;22;19923;-76
2021/10/01 00:20:06;;;;;;;;;;;;;;;11.08;52.86;97419.06;6277657;22;19919;-72
2021/10/01 00:22:33;;;;;;;;;;;;;;;11.07;52.84;97417.44;6278643;22;19919;-74
2021/10/01 00:25:02;;;;;;;;;;;;;;;11.05;52.99;97416.78;6278916;22;19919;-76
2021/10/01 00:27:29;;;;;;;;;;;;;;;11.02;53.04;97417.13;6279034;22;19926;-72
2021/10/01 00:29:57;;;;;;;;;;;;;;;11.00;53.00;97410.41;6280946;22;19923;-74
2021/10/01 00:32:24;;;;;;;;;;;;;;;10.98;53.31;97405.38;6280172;22;19923;-77
2021/10/01 00:34:52;;;;;;;;;;;;;;;10.97;53.01;97400.31;6280390;22;20408;-74
2021/10/01 00:37:20;;;;;;;;;;;;;;;10.95;53.26;97399.66;6279988;22;19923;-74
2021/10/01 00:39:47;;;;;;;;;;;;;;;10.92;53.46;97392.97;6279291;22;19919;-74
2021/10/01 00:42:16;;;;;;;;;;;;;;;10.90;53.34;97397.53;6280296;22;19923;-74
2021/10/01 00:44:43;;;;;;;;;;;;;;;10.86;53.66;97391.00;6279959;22;19942;-74
2021/10/01 00:47:10;;;;;;;;;;;;;;;10.81;53.54;97388.91;6279707;22;19950;-74
2021/10/01 00:49:37;;;;;;;;;;;;;;;10.77;54.07;97382.38;6278552;22;20352;-74
2021/10/01 00:52:05;;;;;;;;;;;;;;;10.78;53.79;97376.19;6279706;22;19919;-77
2021/10/01 00:54:33;;;;;;;;;;;;;;;10.77;53.80;97378.97;6279775;22;19969;-76
2021/10/01 00:57:00;;;;;;;;;;;;;;;10.75;54.06;97384.31;6280401;22;19926;-73
2021/10/01 00:59:29;;;;;;;;;;;;;;;10.75;54.00;97379.13;6279279;22;19919;-75
2021/10/01 01:01:56;;;;;;;;;;;;;;;10.74;53.88;97372.28;6279403;22;20303;-73
2021/10/01 01:04:24;;;;;;;;;;;;;;;10.72;54.00;97376.84;6280502;22;19919;-74
2021/10/01 01:06:56;;;;;;;;;;;;;;;10.72;53.94;97375.03;6279748;22;19926;-74
2021/10/01 01:09:28;;;;;;;;;;;;;;;10.71;54.20;97362.97;6279822;22;20366;-73
2021/10/01 01:12:01;;;;;;;;;;;;;;;10.71;54.30;97370.81;6280137;22;19923;-74
2021/10/01 01:14:34;;;;;;;;;;;;;;;10.74;53.85;97361.03;6279574;22;19977;-74
2021/10/01 01:17:03;;;;;;;;;;;;;;;10.77;54.26;97358.88;6279508;22;19944;-74
2021/10/01 01:19:37;;;;;;;;;;;;;;;10.77;53.90;97356.28;6278843;22;19961;-73
2021/10/01 01:22:12;;;;;;;;;;;;;;;10.74;54.13;97350.59;6279627;22;19919;-76
2021/10/01 01:24:57;;;;;;;;;;;;;;;10.71;54.24;97357.78;6279725;22;19942;-75
2021/10/01 01:27:33;;;;;;;;;;;;;;;10.69;54.29;97344.06;6278678;22;19931;-74
2021/10/01 01:30:03;;;;;;;;;;;;;;;10.66;54.16;97335.75;6279189;22;20118;-74
2021/10/01 01:32:33;;;;;;;;;;;;;;;10.66;54.18;97338.34;6279021;22;19919;-74
2021/10/01 01:35:03;;;;;;;;;;;;;;;10.65;54.36;97337.53;6278844;22;20294;-75
2021/10/01 01:37:36;;;;;;;;;;;;;;;10.65;54.46;97342.75;6278547;22;19927;-74
2021/10/01 01:40:04;;;;;;;;;;;;;;;10.61;54.48;97336.22;6277144;22;19927;-75
2021/10/01 01:42:32;;;;;;;;;;;;;;;10.58;54.47;97330.53;6277708;22;19920;-74
2021/10/01 01:44:59;;;;;;;;;;;;;;;10.58;54.67;97340.94;6277870;22;19931;-74
2021/10/01 01:47:27;;;;;;;;;;;;;;;10.56;54.37;97332.47;6277292;22;19919;-74
2021/10/01 01:49:57;;;;;;;;;;;;;;;10.56;54.54;97324.66;6277279;22;19926;-75
2021/10/01 01:52:25;;;;;;;;;;;;;;;10.53;54.83;97323.19;6277531;22;19919;-75
2021/10/01 01:54:53;;;;;;;;;;;;;;;10.51;54.60;97314.72;6277846;22;19919;-75
2021/10/01 01:57:23;;;;;;;;;;;;;;;10.50;54.71;97313.91;6276962;22;20389;-75
2021/10/01 01:59:50;;;;;;;;;;;;;;;10.50;54.70;97313.91;6276983;22;20298;-74
2021/10/01 02:02:19;;;;;;;;;;;;;;;10.48;55.04;97304.63;6277367;22;20330;-74
2021/10/01 02:04:48;;;;;;;;;;;;;;;10.47;55.09;97305.56;6277243;22;19950;-75
2021/10/01 02:07:17;;;;;;;;;;;;;;;10.48;55.01;97304.63;6277306;22;19919;-75
2021/10/01 02:09:45;;;;;;;;;;;;;;;10.50;54.78;97307.88;6277538;22;20240;-75
2021/10/01 02:12:13;;;;;;;;;;;;;;;10.52;54.81;97298.91;6278111;22;20285;-75
2021/10/01 02:14:42;;;;;;;;;;;;;;;10.54;54.83;97303.97;6278276;22;19923;-75
2021/10/01 02:17:11;;;;;;;;;;;;;;;10.54;54.75;97296.13;6278437;22;19930;-75
2021/10/01 02:19:42;;;;;;;;;;;;;;;10.56;54.85;97293.34;6277814;22;19919;-75
2021/10/01 02:22:10;;;;;;;;;;;;;;;10.60;54.67;97292.03;6277674;22;19926;-73
2021/10/01 02:24:39;;;;;;;;;;;;;;;10.63;54.71;97296.94;6278794;22;19919;-74
2021/10/01 02:27:08;;;;;;;;;;;;;;;10.65;54.63;97290.56;6278692;22;19927;-74
2021/10/01 02:29:40;;;;;;;;;;;;;;;10.70;54.58;97285.66;6277747;22;19920;-74
2021/10/01 02:32:11;;;;;;;;;;;;;;;10.76;54.24;97291.19;6277945;22;19923;-74
2021/10/01 02:34:39;;;;;;;;;;;;;;;10.79;54.56;97280.44;6282044;22;19920;-76
2021/10/01 02:37:07;;;;;;;;;;;;;;;10.77;54.27;97275.38;6283369;22;19919;-74
2021/10/01 02:39:35;;;;;;;;;;;;;;;10.81;54.49;97283.69;6280896;22;19919;-74
2021/10/01 02:42:04;;;;;;;;;;;;;;;10.85;54.44;97272.75;6281043;22;20347;-73
2021/10/01 02:44:32;;;;;;;;;;;;;;;10.89;54.39;97268.84;6281394;22;19944;-74
2021/10/01 02:46:59;;;;;;;;;;;;;;;10.88;54.39;97267.19;6286210;22;19919;-74
2021/10/01 02:49:26;;;;;;;;;;;;;;;10.88;54.23;97269.00;6284505;22;19926;-73
2021/10/01 02:51:58;;;;;;;;;;;;;;;10.90;54.38;97273.06;6280320;22;19919;-73
2021/10/01 02:54:29;;;;;;;;;;;;;;;10.92;54.55;97270.28;6279966;22;19919;-74
2021/10/01 02:57:00;;;;;;;;;;;;;;;10.92;54.20;97265.88;6280583;22;19919;-73
2021/10/01 02:59:30;;;;;;;;;;;;;;;10.88;54.78;97261.97;6280083;22;19919;-74
2021/10/01 03:01:58;;;;;;;;;;;;;;;10.79;54.88;97260.38;6280723;22;19919;-73
2021/10/01 03:04:26;;;;;;;;;;;;;;;10.71;55.28;97258.59;6280940;22;19919;-74
2021/10/01 03:06:54;;;;;;;;;;;;;;;10.63;55.76;97257.81;6280806;22;20347;-73
2021/10/01 03:09:23;;;;;;;;;;;;;;;10.53;55.48;97250.16;6281332;22;19919;-74
2021/10/01 03:11:51;;;;;;;;;;;;;;;10.41;56.33;97247.06;6281422;22;19919;-75
2021/10/01 03:14:20;;;;;;;;;;;;;;;10.33;56.78;97248.88;6281923;22;19927;-75
2021/10/01 03:16:50;;;;;;;;;;;;;;;10.23;57.01;97244.63;6281270;22;19919;-74
2021/10/01 03:19:22;;;;;;;;;;;;;;;10.15;57.22;97243.81;6281495;22;19919;-74
2021/10/01 03:21:50;;;;;;;;;;;;;;;10.03;57.36;97244.09;6280340;22;19926;-74
2021/10/01 03:24:19;;;;;;;;;;;;;;;9.95;58.07;97251.09;6280342;22;19923;-75
2021/10/01 03:26:46;;;;;;;;;;;;;;;9.84;58.29;97247.03;6280807;22;19930;-73
2021/10/01 03:29:14;;;;;;;;;;;;;;;9.77;58.15;97239.03;6280058;22;20343;-75
2021/10/01 03:31:41;;;;;;;;;;;;;;;9.68;58.96;97240.00;6280817;22;20425;-77
2021/10/01 03:34:10;;;;;;;;;;;;;;;9.62;58.94;97232.81;6280008;22;19923;-74
2021/10/01 03:36:38;;;;;;;;;;;;;;;9.55;59.30;97237.84;6279501;22;19923;-74
2021/10/01 03:39:05;;;;;;;;;;;;;;;9.47;59.28;97223.03;6278814;22;19923;-72
2021/10/01 03:41:34;;;;;;;;;;;;;;;9.42;59.68;97224.47;6278921;22;20354;-74
2021/10/01 03:44:01;;;;;;;;;;;;;;;9.36;60.13;97231.16;6279710;22;19926;-74
2021/10/01 03:46:29;;;;;;;;;;;;;;;9.32;60.65;97235.03;6279422;22;19919;-73
2021/10/01 03:48:56;;;;;;;;;;;;;;;9.28;59.74;97220.69;6278680;22;19966;-74
2021/10/01 03:51:25;;;;;;;;;;;;;;;9.25;59.97;97224.44;6279918;22;19919;-73
2021/10/01 03:53:55;;;;;;;;;;;;;;;9.23;59.77;97222.97;6279196;22;19919;-74
2021/10/01 03:56:23;;;;;;;;;;;;;;;9.22;60.75;97223.91;6279133;22;19919;-74
2021/10/01 03:58:50;;;;;;;;;;;;;;;9.23;60.33;97228.19;6278379;22;19927;-74
2021/10/01 04:01:17;;;;;;;;;;;;;;;9.21;60.51;97217.91;6278626;22;19920;-73
2021/10/01 04:03:45;;;;;;;;;;;;;;;9.22;60.10;97221.31;6278278;22;19919;-73
2021/10/01 04:06:12;;;;;;;;;;;;;;;9.23;59.72;97217.75;6278330;22;19926;-73
2021/10/01 04:08:41;;;;;;;;;;;;;;;9.26;60.70;97212.22;6278981;22;19919;-74
2021/10/01 04:11:09;;;;;;;;;;;;;;;9.30;59.57;97220.53;6278384;22;19919;-75
2021/10/01 04:13:36;;;;;;;;;;;;;;;9.36;59.47;97215.53;6278825;22;20358;-75
2021/10/01 04:16:04;;;;;;;;;;;;;;;9.39;59.49;97211.78;6278883;22;20290;-75
2021/10/01 04:18:32;;;;;;;;;;;;;;;9.43;59.07;97208.69;6277253;22;20351;-74
2021/10/01 04:20:59;;;;;;;;;;;;;;;9.49;59.11;97212.47;6279187;22;19927;-75
2021/10/01 04:23:26;;;;;;;;;;;;;;;9.55;58.93;97219.63;6279216;22;19926;-74
2021/10/01 04:25:55;;;;;;;;;;;;;;;9.59;59.19;97210.50;6279125;22;20275;-74
2021/10/01 04:28:22;;;;;;;;;;;;;;;9.59;59.18;97210.50;6279692;22;19930;-77
2021/10/01 04:30:51;;;;;;;;;;;;;;;9.63;59.77;97211.00;6280309;22;19926;-75
2021/10/01 04:33:21;;;;;;;;;;;;;;;9.63;58.82;97206.59;6279364;22;19920;-75
2021/10/01 04:35:48;;;;;;;;;;;;;;;9.67;59.94;97207.13;6279345;22;20264;-75
2021/10/01 04:38:15;;;;;;;;;;;;;;;9.67;59.26;97207.13;6279825;22;19919;-75
2021/10/01 04:40:43;;;;;;;;;;;;;;;9.67;59.16;97218.34;6278330;22;19942;-76
2021/10/01 04:43:11;;;;;;;;;;;;;;;9.65;59.20;97207.25;6278677;22;19934;-74
2021/10/01 04:45:39;;;;;;;;;;;;;;;9.63;59.38;97211.00;6281367;22;19919;-77
2021/10/01 04:48:06;;;;;;;;;;;;;;;9.62;58.97;97214.56;6281079;22;19919;-77
2021/10/01 04:50:34;;;;;;;;;;;;;;;9.63;59.58;97216.22;6281168;22;19927;-78
2021/10/01 04:53:03;;;;;;;;;;;;;;;9.64;59.98;97210.03;6280770;22;19923;-77
2021/10/01 04:55:32;;;;;;;;;;;;;;;9.60;60.44;97211.31;6279934;22;19919;-75
2021/10/01 04:57:59;;;;;;;;;;;;;;;9.55;59.21;97208.38;6279776;22;19981;-76
2021/10/01 05:00:28;;;;;;;;;;;;;;;9.51;59.52;97201.88;6279114;22;19942;-74
2021/10/01 05:02:56;;;;;;;;;;;;;;;9.47;59.95;97204.00;6278905;22;20247;-76
2021/10/01 05:05:23;;;;;;;;;;;;;;;9.43;60.71;97205.28;6276424;22;19919;-75
2021/10/01 05:07:51;;;;;;;;;;;;;;;9.37;60.78;97204.13;6277715;22;20339;-75
2021/10/01 05:10:18;;;;;;;;;;;;;;;9.31;60.36;97207.34;6277375;22;19973;-76
2021/10/01 05:12:45;;;;;;;;;;;;;;;9.28;60.34;97207.69;6278138;22;19920;-74
2021/10/01 05:15:14;;;;;;;;;;;;;;;9.26;60.93;97201.81;6278619;22;19919;-75
2021/10/01 05:17:42;;;;;;;;;;;;;;;9.22;60.61;97200.50;6282462;22;20343;-80
2021/10/01 05:20:12;;;;;;;;;;;;;;;9.22;60.81;97196.09;6284582;22;19923;-79
2021/10/01 05:22:40;;;;;;;;;;;;;;;9.19;60.77;97208.63;6285204;22;19926;-78
2021/10/01 05:25:08;;;;;;;;;;;;;;;9.17;61.05;97216.59;6284213;22;19942;-78
2021/10/01 05:27:37;;;;;;;;;;;;;;;9.12;61.88;97213.66;6285555;22;19920;-79
2021/10/01 05:30:05;;;;;;;;;;;;;;;9.06;61.83;97215.09;6283250;22;19919;-76
2021/10/01 05:32:32;;;;;;;;;;;;;;;9.04;61.59;97211.81;6281641;22;19930;-76
2021/10/01 05:35:01;;;;;;;;;;;;;;;9.03;61.77;97215.41;6282959;22;19930;-78
2021/10/01 05:37:28;;;;;;;;;;;;;;;8.99;61.47;97219.28;6282236;22;19919;-77
2021/10/01 05:39:55;;;;;;;;;;;;;;;8.98;62.38;97216.84;6278817;22;19920;-77
2021/10/01 05:42:23;;;;;;;;;;;;;;;8.95;61.85;97217.97;6279728;22;19938;-76
2021/10/01 05:44:50;;;;;;;;;;;;;;;8.95;62.13;97217.97;6279281;22;19975;-77
2021/10/01 05:47:18;;;;;;;;;;;;;;;8.93;62.13;97212.09;6277022;22;19951;-76
2021/10/01 05:49:45;;;;;;;;;;;;;;;8.94;61.67;97215.50;6290574;22;19920;-77
2021/10/01 05:52:18;;;;;;;;;;;;;;;8.93;61.61;97217.31;6295279;22;19923;-77
2021/10/01 05:54:46;;;;;;;;;;;;;;;8.96;62.07;97221.38;6283130;22;19919;-77
2021/10/01 05:57:13;;;;;;;;;;;;;;;8.97;61.71;97216.03;6278232;22;19930;-77
2021/10/01 05:59:42;;;;;;;;;;;;;;;8.99;61.59;97215.88;6278111;22;19919;-78
2021/10/01 06:02:11;;;;;;;;;;;;;;;9.01;61.72;97222.56;6292910;22;19923;-77
2021/10/01 06:04:38;;;;;;;;;;;;;;;9.07;61.44;97215.91;6286665;22;19919;-78
2021/10/01 06:07:06;;;;;;;;;;;;;;;9.12;61.33;97216.25;6279416;22;19942;-77
2021/10/01 06:09:35;;;;;;;;;;;;;;;9.16;61.14;97214.13;6280077;22;19924;-77
2021/10/01 06:12:02;;;;;;;;;;;;;;;9.22;60.95;97218.72;6279525;22;19926;-76
2021/10/01 06:14:29;;;;;;;;;;;;;;;9.27;60.86;97209.47;6280727;22;20267;-75
2021/10/01 06:16:57;;;;;;;;;;;;;;;9.36;61.06;97214.69;6281638;22;19925;-76
2021/10/01 06:19:25;;;;;;;;;;;;;;;9.40;60.77;97211.63;6281301;22;19973;-76
2021/10/01 06:21:54;;;;;;;;;;;;;;;9.49;60.76;97209.84;6281070;22;20370;-77
2021/10/01 06:24:22;;;;;;;;;;;;;;;9.56;60.35;97215.25;6281860;22;19923;-77
2021/10/01 06:26:50;;;;;;;;;;;;;;;9.61;60.73;97212.97;6282658;22;19926;-77
2021/10/01 06:29:18;;;;;;;;;;;;;;;9.66;60.41;97211.50;6282176;22;20268;-77
2021/10/01 06:31:46;;;;;;;;;;;;;;;9.71;60.38;97211.03;6282672;22;19926;-76
2021/10/01 06:34:14;;;;;;;;;;;;;;;9.75;59.86;97214.94;6282702;22;20339;-77
2021/10/01 06:36:41;;;;;;;;;;;;;;;9.84;60.24;97215.78;6282123;22;20358;-77
2021/10/01 06:39:09;;;;;;;;;;;;;;;9.92;59.85;97215.75;6281234;22;19923;-73
2021/10/01 06:41:37;;;;;;;;;;;;;;;10.01;59.79;97206.16;6279431;22;19919;-74
2021/10/01 06:44:07;;;;;;;;;;;;;;;10.12;59.75;97195.38;6277540;22;19919;-74
2021/10/01 06:46:40;;;;;;;;;;;;;;;10.25;59.87;97205.31;6276910;22;20347;-73
2021/10/01 06:49:20;;;;;;;;;;;;;;;10.36;59.31;97201.59;6276768;22;19930;-74
2021/10/01 07:22:44;;;;;;;;;;;;;;;12.14;57.14;97189.63;6217731;22;20376;-75
2021/10/01 07:39:21;;;;;;;;;;;;;;;13.39;54.78;97181.06;6279223;22;19923;-74
2021/10/01 08:20:22;;;;;;;;;;;;;;;16.72;49.07;97158.81;6275542;22;19969;-75
2021/10/01 08:22:50;;;;;;;;;;;;;;;16.88;48.46;97155.78;6275880;22;20262;-76
2021/10/01 08:25:18;;;;;;;;;;;;;;;16.99;48.56;97153.50;6276101;22;19919;-75
2021/10/01 08:27:45;;;;;;;;;;;;;;;17.12;48.70;97150.84;6276134;22;19923;-75
2021/10/01 08:30:13;;;;;;;;;;;;;;;17.33;48.54;97148.91;6275852;22;20294;-74
2021/10/01 08:32:41;;;;;;;;;;;;;;;17.55;48.27;97154.66;6275892;22;20378;-75
2021/10/01 08:35:09;;;;;;;;;;;;;;;17.77;48.24;97160.41;6276015;22;19919;-74
2021/10/01 08:37:36;;;;;;;;;;;;;;;18.06;46.99;97159.81;6275611;22;19930;-74
2021/10/01 08:40:06;;;;;;;;;;;;;;;18.30;47.21;97160.84;6287566;22;19927;-75
2021/10/01 08:42:34;;;;;;;;;;;;;;;18.57;46.76;97157.13;6306509;22;19919;-75
2021/10/01 08:45:02;;;;;;;;;;;;;;;18.80;45.98;97153.84;6306714;22;19919;-75
2021/10/01 08:47:29;;;;;;;;;;;;;;;19.03;45.58;97150.56;6306627;22;19923;-75
2021/10/01 08:50:00;;;;;;;;;;;;;;;19.41;45.42;97158.19;6307758;22;19927;-75
2021/10/01 08:52:27;;;;;;;;;;;;;;;20.00;44.74;97155.72;6308948;22;19922;-75
2021/10/01 08:54:55;;;;;;;;;;;;;;;20.85;42.72;97146.53;6308707;22;19926;-75
2021/10/01 08:57:23;;;;;;;;;;;;;;;22.21;41.55;97153.78;6308439;22;20232;-75
2021/10/01 08:59:51;;;;;;;;;;;;;;;23.70;37.87;97144.97;6308293;22;19926;-72
2021/10/01 09:02:19;;;;;;;;;;;;;;;24.45;35.67;97142.41;6308550;22;20234;-72
2021/10/01 09:04:47;;;;;;;;;;;;;;;24.65;35.19;97150.53;6308278;22;20397;-73
2021/10/01 09:07:14;;;;;;;;;;;;;;;24.79;35.67;97136.72;6307961;22;20388;-73
2021/10/01 09:09:43;;;;;;;;;;;;;;;25.29;35.23;97138.00;6307948;22;19918;-72
2021/10/01 09:12:14;;;;;;;;;;;;;;;26.14;31.76;97134.91;6308527;22;19919;-73
2021/10/01 09:14:44;;;;;;;;;;;;;;;26.91;31.80;97134.75;6308334;22;20004;-73
2021/10/01 09:17:12;;;;;;;;;;;;;;;27.75;30.71;97134.84;6308166;22;19926;-72
2021/10/01 09:19:40;;;;;;;;;;;;;;;28.41;30.13;97130.03;6307839;22;19919;-73
2021/10/01 09:22:08;;;;;;;;;;;;;;;28.81;28.49;97120.75;6308044;22;19922;-73
2021/10/01 09:24:41;;;;;;;;;;;;;;;29.07;29.32;97121.22;6308200;22;19926;-73
2021/10/01 09:27:09;;;;;;;;;;;;;;;29.33;28.97;97118.25;6308351;22;20276;-73
2021/10/01 09:29:37;;;;;;;;;;;;;;;29.39;28.56;97117.06;6307812;22;19930;-73
2021/10/01 09:32:11;;;;;;;;;;;;;;;29.21;28.32;97113.28;6307597;22;19969;-73
2021/10/01 09:34:40;;;;;;;;;;;;;;;28.47;29.08;97113.59;6308215;22;19918;-73
2021/10/01 09:37:08;;;;;;;;;;;;;;;27.58;30.54;97110.31;6308007;22;19922;-73
2021/10/01 09:39:37;;;;;;;;;;;;;;;26.90;31.54;97106.41;6307427;22;19942;-73
2021/10/01 09:42:11;;;;;;;;;;;;;;;26.37;33.13;97104.13;6308051;22;19918;-72
2021/10/01 09:44:42;;;;;;;;;;;;;;;26.08;34.02;97099.34;6307928;22;19923;-73
2021/10/01 09:47:11;;;;;;;;;;;;;;;25.89;32.60;97099.09;6308112;22;19923;-73
2021/10/01 09:49:38;;;;;;;;;;;;;;;25.57;33.50;97093.19;6307496;22;19919;-73
2021/10/01 09:52:06;;;;;;;;;;;;;;;25.37;33.66;97092.09;6307588;22;20342;-73
2021/10/01 09:54:34;;;;;;;;;;;;;;;25.31;35.32;97087.81;6308129;22;20262;-73
2021/10/01 09:57:02;;;;;;;;;;;;;;;25.45;34.84;97083.56;6307741;22;19919;-73
2021/10/01 09:59:30;;;;;;;;;;;;;;;25.57;34.54;97077.16;6307022;22;20346;-73
2021/10/01 10:02:08;;;;;;;;;;;;;;;25.59;34.62;97085.72;6307674;22;19926;-73
2021/10/01 10:04:39;;;;;;;;;;;;;;;25.65;35.09;97076.63;6307862;22;19954;-73
2021/10/01 10:07:14;;;;;;;;;;;;;;;25.89;34.37;97068.91;6307732;22;19919;-73
2021/10/01 10:09:42;;;;;;;;;;;;;;;26.16;34.79;97073.94;6306828;22;19973;-73
2021/10/01 10:12:11;;;;;;;;;;;;;;;26.47;34.51;97076.53;6307688;22;19919;-73
2021/10/01 10:14:42;;;;;;;;;;;;;;;26.69;32.02;97074.34;6307343;22;20339;-73
2021/10/01 10:17:16;;;;;;;;;;;;;;;26.61;32.68;97072.25;6307828;22;19926;-74
2021/10/01 10:19:48;;;;;;;;;;;;;;;26.60;32.90;97070.63;6307246;22;19929;-73
2021/10/01 10:22:16;;;;;;;;;;;;;;;26.71;32.32;97066.06;6307714;22;19919;-73
2021/10/01 10:24:43;;;;;;;;;;;;;;;26.86;31.65;97071.34;6307707;22;19919;-73
2021/10/01 10:27:11;;;;;;;;;;;;;;;26.91;31.47;97067.81;6312953;22;19919;-73
2021/10/01 10:29:40;;;;;;;;;;;;;;;27.00;32.48;97060.03;6313599;22;19926;-74
2021/10/01 10:32:10;;;;;;;;;;;;;;;27.28;33.20;97061.22;6314032;22;20327;-73
2021/10/01 10:34:47;;;;;;;;;;;;;;;27.85;31.88;97057.03;6307746;22;19923;-74
2021/10/01 10:37:17;;;;;;;;;;;;;;;28.42;31.63;97057.28;6307631;22;19942;-74
2021/10/01 10:39:46;;;;;;;;;;;;;;;28.75;31.32;97054.78;6306951;22;20258;-74
2021/10/01 10:42:15;;;;;;;;;;;;;;;28.73;30.58;97048.88;6307593;22;19919;-74
2021/10/01 10:44:45;;;;;;;;;;;;;;;28.51;30.22;97050.25;6307481;22;19918;-73
2021/10/01 10:47:13;;;;;;;;;;;;;;;28.34;30.12;97050.66;6307246;22;19926;-74
2021/10/01 10:49:40;;;;;;;;;;;;;;;28.14;31.05;97040.97;6307051;22;19919;-74
2021/10/01 10:52:09;;;;;;;;;;;;;;;28.14;31.29;97035.59;6307430;22;19923;-74
2021/10/01 10:54:39;;;;;;;;;;;;;;;28.56;31.19;97041.34;6307395;22;19919;-74
2021/10/01 10:57:27;;;;;;;;;;;;;;;29.11;28.93;97028.28;6307325;22;19919;-74
2021/10/01 10:59:56;;;;;;;;;;;;;;;29.24;27.82;97028.63;6306724;22;19926;-74
2021/10/01 11:02:27;;;;;;;;;;;;;;;28.93;29.40;97026.38;6307453;22;20290;-73
2021/10/01 11:05:09;;;;;;;;;;;;;;;28.65;29.90;97018.13;6307480;22;19926;-74
2021/10/01 11:07:47;;;;;;;;;;;;;;;28.51;29.57;97027.97;6305871;22;19930;-74
2021/10/01 11:10:35;;;;;;;;;;;;;;;28.48;29.85;97017.81;6306458;22;19919;-74
2021/10/01 11:13:22;;;;;;;;;;;;;;;28.49;30.45;97014.03;6306652;22;19922;-74
2021/10/01 11:16:04;;;;;;;;;;;;;;;28.82;30.72;97016.81;6306690;22;20342;-74
2021/10/01 11:18:31;;;;;;;;;;;;;;;29.35;28.38;97005.88;6305146;22;19918;-74
2021/10/01 11:20:58;;;;;;;;;;;;;;;29.58;28.02;96996.91;6306631;22;19923;-74
2021/10/01 11:23:26;;;;;;;;;;;;;;;29.51;27.78;96995.69;6307062;22;19926;-74
2021/10/01 11:25:54;;;;;;;;;;;;;;;29.06;29.17;96988.03;6306983;22;19919;-74
2021/10/01 11:28:31;;;;;;;;;;;;;;;28.78;28.93;96994.34;6306567;22;20430;-74
2021/10/01 11:30:59;;;;;;;;;;;;;;;28.59;30.06;96992.44;6306889;22;19923;-74
2021/10/01 11:33:26;;;;;;;;;;;;;;;28.64;30.15;96984.31;6307517;22;19950;-74
2021/10/01 11:35:55;;;;;;;;;;;;;;;28.84;30.48;96972.50;6306996;22;19968;-74
2021/10/01 11:38:24;;;;;;;;;;;;;;;29.32;30.44;96972.34;6307293;22;19923;-74
2021/10/01 11:41:04;;;;;;;;;;;;;;;29.89;28.57;96980.25;6306785;22;19918;-74
2021/10/01 11:43:32;;;;;;;;;;;;;;;30.24;28.74;96969.91;6306788;22;19919;-74
2021/10/01 11:46:01;;;;;;;;;;;;;;;30.14;27.97;96975.50;6306861;22;20001;-74
2021/10/01 11:48:33;;;;;;;;;;;;;;;29.80;28.93;96971.25;6306877;22;19919;-74
2021/10/01 11:51:01;;;;;;;;;;;;;;;29.69;29.06;96962.59;6306809;22;20365;-74
2021/10/01 11:53:34;;;;;;;;;;;;;;;29.78;27.76;96966.22;6306909;22;19969;-74
2021/10/01 11:56:03;;;;;;;;;;;;;;;29.70;28.73;96960.72;6307252;22;19926;-74
2021/10/01 11:58:33;;;;;;;;;;;;;;;29.69;29.77;96959.09;6306427;22;19961;-74
2021/10/01 12:01:09;;;;;;;;;;;;;;;29.76;28.95;96949.56;6306771;22;19919;-74
2021/10/01 12:03:46;;;;;;;;;;;;;;;29.85;28.77;96954.25;6306971;22;19925;-74
2021/10/01 12:06:18;;;;;;;;;;;;;;;29.50;28.67;96941.13;6306898;22;19919;-74
2021/10/01 12:08:52;;;;;;;;;;;;;;;28.91;28.94;96946.09;6305856;22;20285;-73
2021/10/01 12:11:24;;;;;;;;;;;;;;;28.14;29.52;96939.06;6306595;22;19997;-74
2021/10/01 12:13:52;;;;;;;;;;;;;;;27.44;30.69;96942.19;6306904;22;19942;-74
2021/10/01 12:16:20;;;;;;;;;;;;;;;26.96;31.74;96933.97;6306797;22;19950;-74
2021/10/01 12:18:54;;;;;;;;;;;;;;;26.68;32.27;96936.28;6306127;22;19919;-73
2021/10/01 12:21:23;;;;;;;;;;;;;;;26.48;31.65;96925.69;6306668;22;19919;-74
2021/10/01 12:23:55;;;;;;;;;;;;;;;26.16;32.79;96928.78;6307620;22;20268;-73
2021/10/01 12:26:29;;;;;;;;;;;;;;;25.93;33.74;96919.50;6308939;22;19926;-76
2021/10/01 12:28:59;;;;;;;;;;;;;;;25.78;34.01;96913.09;6308640;22;19923;-73
2021/10/01 12:31:29;;;;;;;;;;;;;;;25.64;34.42;96904.84;6308571;22;19942;-73
2021/10/01 12:33:57;;;;;;;;;;;;;;;25.53;33.51;96910.50;6309115;22;19923;-73
2021/10/01 12:36:25;;;;;;;;;;;;;;;25.31;33.41;96908.91;6308784;22;19919;-73
2021/10/01 12:38:54;;;;;;;;;;;;;;;25.08;34.53;96904.91;6308305;22;19927;-73
2021/10/01 15:47:34;;;;;;;;;;;;;;;21.09;42.36;96722.09;6304560;22;20340;-77
2021/10/01 15:50:08;;;;;;;;;;;;;;;21.08;42.33;96731.06;6292572;22;19925;-79
2021/10/01 15:52:58;;;;;;;;;;;;;;;21.03;42.54;96729.16;6303680;22;19963;-78
2021/10/01 15:55:43;;;;;;;;;;;;;;;20.99;42.70;96731.50;6251800;22;20354;-77
2021/10/01 15:58:10;;;;;;;;;;;;;;;20.96;42.88;96723.22;6275825;22;19929;-77
2021/10/01 16:00:39;;;;;;;;;;;;;;;20.93;42.89;96734.34;6275897;22;19942;-76
2021/10/01 16:03:09;;;;;;;;;;;;;;;20.89;42.62;96734.00;6275997;22;20335;-77
2021/10/01 16:05:37;;;;;;;;;;;;;;;20.86;42.89;96729.22;6275926;22;19919;-77
2021/10/01 16:08:06;;;;;;;;;;;;;;;20.83;43.00;96724.38;6276072;22;20255;-77
2021/10/01 16:10:34;;;;;;;;;;;;;;;20.80;42.88;96724.88;6275825;22;19998;-76
2021/10/01 16:13:01;;;;;;;;;;;;;;;20.76;43.03;96723.75;6276139;22;19931;-75
2021/10/01 16:15:28;;;;;;;;;;;;;;;20.70;43.36;96722.06;6275795;22;20369;-75
2021/10/01 16:17:56;;;;;;;;;;;;;;;20.67;43.22;96719.91;6276267;22;19923;-76
2021/10/01 16:20:28;;;;;;;;;;;;;;;20.63;43.48;96719.59;6275545;22;19919;-75
2021/10/01 16:22:56;;;;;;;;;;;;;;;20.61;43.48;96720.88;6275800;22;19919;-76
2021/10/01 16:25:24;;;;;;;;;;;;;;;20.56;43.69;96725.03;6275505;22;20343;-76
2021/10/01 16:27:55;;;;;;;;;;;;;;;20.52;43.86;96723.91;6278514;22;19923;-83
2021/10/01 16:30:28;;;;;;;;;;;;;;;20.44;44.13;96718.22;6251469;22;20386;-78
2021/10/01 16:32:55;;;;;;;;;;;;;;;20.36;44.72;96714.13;6275823;22;20289;-79
2021/10/01 16:35:22;;;;;;;;;;;;;;;20.28;44.99;96717.19;6276429;22;19926;-79
2021/10/01 16:37:51;;;;;;;;;;;;;;;20.20;45.24;96720.22;6277120;22;19926;-78
2021/10/01 16:40:19;;;;;;;;;;;;;;;20.10;45.48;96721.66;6275936;22;20327;-77
2021/10/01 16:42:46;;;;;;;;;;;;;;;20.02;45.61;96719.41;6275640;22;20367;-77
2021/10/01 16:45:14;;;;;;;;;;;;;;;19.93;46.06;96711.03;6275880;22;20263;-77
2021/10/01 16:47:41;;;;;;;;;;;;;;;19.84;46.46;96716.97;6275648;22;19919;-77
2021/10/01 16:50:09;;;;;;;;;;;;;;;19.74;46.71;96707.81;6274756;22;19927;-79
2021/10/01 16:52:37;;;;;;;;;;;;;;;19.66;46.76;96713.44;6273167;22;19934;-78
2021/10/01 16:55:08;;;;;;;;;;;;;;;19.58;47.03;96711.16;6293305;22;19919;-77
2021/10/01 16:57:36;;;;;;;;;;;;;;;19.51;47.45;96705.22;6307951;22;19919;-79
2021/10/01 17:00:05;;;;;;;;;;;;;;;19.42;47.74;96709.28;6307992;22;19926;-76
2021/10/01 17:02:32;;;;;;;;;;;;;;;19.33;47.91;96712.28;6306675;22;19919;-78
2021/10/01 17:05:00;;;;;;;;;;;;;;;19.26;48.11;96724.84;6306398;22;19919;-78
2021/10/01 17:07:29;;;;;;;;;;;;;;;19.19;48.05;96710.94;6307020;22;20253;-77
2021/10/01 17:09:57;;;;;;;;;;;;;;;19.12;48.88;96716.38;6307354;22;20262;-77
2021/10/01 17:12:26;;;;;;;;;;;;;;;19.03;48.68;96717.75;6308319;22;19919;-77
2021/10/01 17:14:54;;;;;;;;;;;;;;;18.97;48.78;96709.97;6308390;22;19925;-78
2021/10/01 17:17:21;;;;;;;;;;;;;;;18.93;48.68;96712.25;6308164;22;19923;-78
2021/10/01 17:19:49;;;;;;;;;;;;;;;18.89;48.77;96725.16;6307942;22;20366;-78
2021/10/01 17:22:16;;;;;;;;;;;;;;;18.88;48.91;96718.25;6309145;22;19919;-77
2021/10/01 17:24:44;;;;;;;;;;;;;;;18.87;49.19;96719.28;6308102;22;19974;-77
2021/10/01 17:27:11;;;;;;;;;;;;;;;18.85;49.34;96721.34;6308208;22;19919;-77
2021/10/01 17:29:40;;;;;;;;;;;;;;;18.80;49.22;96723.88;6307607;22;19923;-77